sensor_id;sensor_type;location;lat;lon;timestamp;pressure;altitude;pressure_sealevel;temperature;humidity
12973;BME280;6551;51.056;9.466;2024-03-23T00:55:27;96726.69;;;16.58;61.92
12973;BME280;6551;51.056;9.466;2024-03-23T00:57:53;96724.31;;;16.07;61.69
12973;BME280;6551;51.056;9.466;2024-03-23T01:00:19;96719.09;;;15.77;63.09
12973;BME280;6551;51.056;9.466;2024-03-23T01:02:48;96713.78;;;15.42;63.75
12973;BME280;6551;51.056;9.466;2024-03-23T01:05:14;96703.09;;;15.21;64.03
12973;BME280;6551;51.056;9.466;2024-03-23T01:07:40;96709.22;;;15.47;63.73
12973;BME280;6551;51.056;9.466;2024-03-23T01:10:06;96701.19;;;15.47;63.54
12973;BME280;6551;51.056;9.466;2024-03-23T01:12:32;96693.41;;;15.51;63.15
12973;BME280;6551;51.056;9.466;2024-03-23T01:14:57;96696.91;;;15.46;62.83
12973;BME280;6551;51.056;9.466;2024-03-23T01:17:23;96696.31;;;15.59;62.61
12973;BME280;6551;51.056;9.466;2024-03-23T01:19:50;96689.00;;;15.75;62.47
12973;BME280;6551;51.056;9.466;2024-03-23T01:22:15;96693.34;;;15.61;62.50
12973;BME280;6551;51.056;9.466;2024-03-23T01:24:41;96693.56;;;15.74;62.57
12973;BME280;6551;51.056;9.466;2024-03-23T01:27:08;96681.75;;;15.75;62.40
12973;BME280;6551;51.056;9.466;2024-03-23T01:29:35;96670.22;;;15.75;62.28
12973;BME280;6551;51.056;9.466;2024-03-23T01:32:02;96673.25;;;15.58;62.27
12973;BME280;6551;51.056;9.466;2024-03-23T01:34:28;96662.00;;;15.41;62.70
12973;BME280;6551;51.056;9.466;2024-03-23T01:36:54;96655.25;;;15.59;62.40
12973;BME280;6551;51.056;9.466;2024-03-23T01:39:19;96642.97;;;15.43;62.38
12973;BME280;6551;51.056;9.466;2024-03-23T01:41:46;96644.56;;;15.54;62.47
12973;BME280;6551;51.056;9.466;2024-03-23T01:44:12;96650.75;;;15.39;62.32
12973;BME280;6551;51.056;9.466;2024-03-23T01:46:38;96643.50;;;15.55;62.38
12973;BME280;6551;51.056;9.466;2024-03-23T01:49:05;96639.19;;;15.54;62.59
12973;BME280;6551;51.056;9.466;2024-03-23T01:51:32;96641.03;;;15.58;61.94
12973;BME280;6551;51.056;9.466;2024-03-23T01:54:01;96635.34;;;15.70;62.12
12973;BME280;6551;51.056;9.466;2024-03-23T01:56:31;96631.66;;;15.56;62.40
12973;BME280;6551;51.056;9.466;2024-03-23T01:58:59;96630.63;;;15.47;62.07
12973;BME280;6551;51.056;9.466;2024-03-23T02:01:27;96628.16;;;15.60;62.03
12973;BME280;6551;51.056;9.466;2024-03-23T02:03:54;96632.97;;;15.63;61.88
12973;BME280;6551;51.056;9.466;2024-03-23T02:06:20;96639.97;;;15.59;61.50
12973;BME280;6551;51.056;9.466;2024-03-23T02:08:46;96636.44;;;15.64;61.87
12973;BME280;6551;51.056;9.466;2024-03-23T02:11:11;96633.19;;;15.77;61.83
12973;BME280;6551;51.056;9.466;2024-03-23T02:13:37;96632.41;;;15.71;61.43
12973;BME280;6551;51.056;9.466;2024-03-23T02:16:05;96627.81;;;15.77;61.52
12973;BME280;6551;51.056;9.466;2024-03-23T02:18:31;96624.41;;;15.56;61.29
12973;BME280;6551;51.056;9.466;2024-03-23T02:20:56;96633.84;;;15.49;61.65
12973;BME280;6551;51.056;9.466;2024-03-23T02:23:22;96636.38;;;15.00;61.92
12973;BME280;6551;51.056;9.466;2024-03-23T02:25:50;96614.09;;;15.14;62.92
12973;BME280;6551;51.056;9.466;2024-03-23T02:28:15;96610.66;;;14.99;62.77
12973;BME280;6551;51.056;9.466;2024-03-23T02:30:43;96610.66;;;14.89;62.12
12973;BME280;6551;51.056;9.466;2024-03-23T02:33:08;96610.94;;;14.77;62.35
12973;BME280;6551;51.056;9.466;2024-03-23T02:35:35;96604.00;;;14.61;63.36
12973;BME280;6551;51.056;9.466;2024-03-23T02:38:01;96602.66;;;14.28;63.45
12973;BME280;6551;51.056;9.466;2024-03-23T02:40:28;96597.59;;;14.27;63.47
12973;BME280;6551;51.056;9.466;2024-03-23T02:42:54;96605.06;;;14.25;63.55
12973;BME280;6551;51.056;9.466;2024-03-23T02:45:20;96594.88;;;13.81;63.39
12973;BME280;6551;51.056;9.466;2024-03-23T02:47:46;96599.16;;;13.97;63.67
12973;BME280;6551;51.056;9.466;2024-03-23T02:50:12;96593.53;;;13.94;64.51
12973;BME280;6551;51.056;9.466;2024-03-23T02:52:37;96589.00;;;14.10;64.25
12973;BME280;6551;51.056;9.466;2024-03-23T02:55:05;96589.28;;;14.23;63.75
12973;BME280;6551;51.056;9.466;2024-03-23T02:57:31;96574.28;;;14.02;64.93
12973;BME280;6551;51.056;9.466;2024-03-23T02:59:57;96586.06;;;14.16;64.52
12973;BME280;6551;51.056;9.466;2024-03-23T03:02:22;96591.94;;;14.03;64.13
12973;BME280;6551;51.056;9.466;2024-03-23T03:04:49;96587.66;;;13.97;64.74
12973;BME280;6551;51.056;9.466;2024-03-23T03:07:16;96571.53;;;13.57;65.23
12973;BME280;6551;51.056;9.466;2024-03-23T03:09:42;96583.78;;;13.32;66.09
12973;BME280;6551;51.056;9.466;2024-03-23T03:12:09;96571.16;;;13.23;66.60
12973;BME280;6551;51.056;9.466;2024-03-23T03:14:36;96562.25;;;13.02;67.00
12973;BME280;6551;51.056;9.466;2024-03-23T03:17:04;96564.63;;;12.94;67.30
12973;BME280;6551;51.056;9.466;2024-03-23T03:19:30;96571.50;;;12.84;67.67
12973;BME280;6551;51.056;9.466;2024-03-23T03:21:56;96562.16;;;12.82;68.03
12973;BME280;6551;51.056;9.466;2024-03-23T03:24:22;96553.31;;;12.76;68.26
12973;BME280;6551;51.056;9.466;2024-03-23T03:26:47;96559.78;;;12.90;68.62
12973;BME280;6551;51.056;9.466;2024-03-23T03:29:15;96555.16;;;13.33;67.55
12973;BME280;6551;51.056;9.466;2024-03-23T03:31:40;96543.38;;;13.19;67.40
12973;BME280;6551;51.056;9.466;2024-03-23T03:34:06;96533.97;;;13.16;67.03
12973;BME280;6551;51.056;9.466;2024-03-23T03:36:32;96531.91;;;13.28;67.14
12973;BME280;6551;51.056;9.466;2024-03-23T03:38:59;96528.47;;;13.53;66.97
12973;BME280;6551;51.056;9.466;2024-03-23T03:41:25;96529.81;;;13.45;66.84
12973;BME280;6551;51.056;9.466;2024-03-23T03:43:51;96533.81;;;13.48;66.70
12973;BME280;6551;51.056;9.466;2024-03-23T03:46:18;96534.66;;;13.74;66.65
12973;BME280;6551;51.056;9.466;2024-03-23T03:48:45;96533.28;;;13.46;66.24
12973;BME280;6551;51.056;9.466;2024-03-23T03:51:14;96534.03;;;13.31;66.36
12973;BME280;6551;51.056;9.466;2024-03-23T03:53:40;96522.66;;;12.94;66.32
12973;BME280;6551;51.056;9.466;2024-03-23T03:56:06;96511.94;;;12.89;66.58
12973;BME280;6551;51.056;9.466;2024-03-23T03:58:33;96503.38;;;12.77;66.64
12973;BME280;6551;51.056;9.466;2024-03-23T04:00:59;96497.97;;;12.67;67.02
12973;BME280;6551;51.056;9.466;2024-03-23T04:03:26;96502.50;;;12.66;66.98
12973;BME280;6551;51.056;9.466;2024-03-23T04:05:53;96500.63;;;12.62;66.96
12973;BME280;6551;51.056;9.466;2024-03-23T04:08:21;96498.63;;;12.42;67.28
12973;BME280;6551;51.056;9.466;2024-03-23T04:10:47;96502.66;;;12.45;67.24
12973;BME280;6551;51.056;9.466;2024-03-23T04:13:14;96498.91;;;12.41;67.75
12973;BME280;6551;51.056;9.466;2024-03-23T04:15:40;96508.91;;;12.18;68.03
12973;BME280;6551;51.056;9.466;2024-03-23T04:18:05;96503.47;;;12.03;67.75
12973;BME280;6551;51.056;9.466;2024-03-23T04:20:31;96512.72;;;11.91;67.92
12973;BME280;6551;51.056;9.466;2024-03-23T04:22:58;96520.91;;;12.16;67.69
12973;BME280;6551;51.056;9.466;2024-03-23T04:25:24;96513.13;;;11.78;67.53
12973;BME280;6551;51.056;9.466;2024-03-23T04:27:50;96508.16;;;11.91;67.42
12973;BME280;6551;51.056;9.466;2024-03-23T04:30:18;96504.13;;;11.89;67.57
12973;BME280;6551;51.056;9.466;2024-03-23T04:32:45;96514.03;;;11.88;67.54
12973;BME280;6551;51.056;9.466;2024-03-23T04:35:10;96521.00;;;11.94;67.55
12973;BME280;6551;51.056;9.466;2024-03-23T04:37:37;96526.38;;;11.99;67.51
12973;BME280;6551;51.056;9.466;2024-03-23T04:40:06;96527.47;;;12.03;67.60
12973;BME280;6551;51.056;9.466;2024-03-23T04:42:33;96528.22;;;11.94;67.46
12973;BME280;6551;51.056;9.466;2024-03-23T04:44:59;96539.50;;;11.74;67.09
12973;BME280;6551;51.056;9.466;2024-03-23T04:47:25;96534.09;;;11.69;67.32
12973;BME280;6551;51.056;9.466;2024-03-23T04:49:51;96536.28;;;11.72;67.26
12973;BME280;6551;51.056;9.466;2024-03-23T04:52:17;96534.34;;;11.67;66.96
12973;BME280;6551;51.056;9.466;2024-03-23T04:54:44;96515.59;;;11.57;67.74
12973;BME280;6551;51.056;9.466;2024-03-23T04:57:12;96521.81;;;11.68;67.47
12973;BME280;6551;51.056;9.466;2024-03-23T04:59:38;96525.19;;;11.32;67.42
12973;BME280;6551;51.056;9.466;2024-03-23T05:02:04;96526.09;;;11.42;67.10
12973;BME280;6551;51.056;9.466;2024-03-23T05:04:29;96529.16;;;11.56;66.67
12973;BME280;6551;51.056;9.466;2024-03-23T05:06:55;96535.84;;;11.32;nan
12973;BME280;6551;51.056;9.466;2024-03-23T05:09:22;96532.78;;;11.18;66.39
12973;BME280;6551;51.056;9.466;2024-03-23T05:11:48;96541.28;;;10.93;66.68
12973;BME280;6551;51.056;9.466;2024-03-23T05:14:14;96539.50;;;10.99;66.66
12973;BME280;6551;51.056;9.466;2024-03-23T05:16:40;96542.16;;;10.99;66.72
12973;BME280;6551;51.056;9.466;2024-03-23T05:19:06;96540.97;;;10.90;67.10
12973;BME280;6551;51.056;9.466;2024-03-23T05:21:32;96545.50;;;10.89;66.77
12973;BME280;6551;51.056;9.466;2024-03-23T05:23:59;96545.06;;;10.97;67.00
12973;BME280;6551;51.056;9.466;2024-03-23T05:26:24;96553.16;;;10.86;66.71
12973;BME280;6551;51.056;9.466;2024-03-23T05:28:50;96553.69;;;10.83;66.45
12973;BME280;6551;51.056;9.466;2024-03-23T05:31:27;96556.47;;;10.93;66.36
12973;BME280;6551;51.056;9.466;2024-03-23T05:33:53;96557.66;;;10.64;66.26
12973;BME280;6551;51.056;9.466;2024-03-23T05:36:21;96551.25;;;10.60;66.11
12973;BME280;6551;51.056;9.466;2024-03-23T05:38:49;96570.63;;;10.55;66.47
12973;BME280;6551;51.056;9.466;2024-03-23T05:41:15;96569.91;;;10.43;66.34
12973;BME280;6551;51.056;9.466;2024-03-23T05:43:41;96560.88;;;10.27;66.18
12973;BME280;6551;51.056;9.466;2024-03-23T05:46:07;96574.84;;;10.18;66.29
12973;BME280;6551;51.056;9.466;2024-03-23T05:48:35;96580.56;;;10.26;nan
12973;BME280;6551;51.056;9.466;2024-03-23T05:51:01;96584.06;;;9.82;66.44
12973;BME280;6551;51.056;9.466;2024-03-23T05:53:27;96588.47;;;10.76;64.94
12973;BME280;6551;51.056;9.466;2024-03-23T05:56:03;96601.38;;;11.06;64.19
12973;BME280;6551;51.056;9.466;2024-03-23T05:58:31;96601.03;;;11.02;64.43
12973;BME280;6551;51.056;9.466;2024-03-23T06:01:01;96609.69;;;11.09;64.09
12973;BME280;6551;51.056;9.466;2024-03-23T06:03:28;96610.72;;;11.08;64.21
12973;BME280;6551;51.056;9.466;2024-03-23T06:05:54;96615.81;;;11.10;63.75
12973;BME280;6551;51.056;9.466;2024-03-23T06:08:22;96627.28;;;11.10;63.89
12973;BME280;6551;51.056;9.466;2024-03-23T06:10:49;96637.06;;;11.05;64.21
12973;BME280;6551;51.056;9.466;2024-03-23T06:13:17;96641.63;;;11.09;64.34
12973;BME280;6551;51.056;9.466;2024-03-23T06:15:47;96633.00;;;11.02;64.54
12973;BME280;6551;51.056;9.466;2024-03-23T06:18:16;96642.44;;;10.88;64.64
12973;BME280;6551;51.056;9.466;2024-03-23T06:20:42;96631.78;;;10.88;64.86
12973;BME280;6551;51.056;9.466;2024-03-23T06:23:07;96644.03;;;10.89;64.82
12973;BME280;6551;51.056;9.466;2024-03-23T06:25:34;96642.84;;;10.64;65.03
12973;BME280;6551;51.056;9.466;2024-03-23T06:28:01;96640.00;;;10.87;65.38
12973;BME280;6551;51.056;9.466;2024-03-23T06:30:28;96641.94;;;10.75;64.97
12973;BME280;6551;51.056;9.466;2024-03-23T06:32:54;96640.19;;;10.64;64.65
12973;BME280;6551;51.056;9.466;2024-03-23T06:35:21;96646.91;;;10.49;65.29
12973;BME280;6551;51.056;9.466;2024-03-23T06:37:49;96649.25;;;10.63;65.52
12973;BME280;6551;51.056;9.466;2024-03-23T06:40:16;96643.19;;;10.50;65.44
12973;BME280;6551;51.056;9.466;2024-03-23T06:42:42;96642.84;;;10.47;65.38
12973;BME280;6551;51.056;9.466;2024-03-23T06:45:10;96656.00;;;10.70;65.54
12973;BME280;6551;51.056;9.466;2024-03-23T06:47:38;96672.72;;;10.66;65.45
12973;BME280;6551;51.056;9.466;2024-03-23T06:50:04;96678.44;;;10.74;65.28
12973;BME280;6551;51.056;9.466;2024-03-23T06:52:30;96692.72;;;10.68;64.95
12973;BME280;6551;51.056;9.466;2024-03-23T06:54:57;96677.84;;;10.89;64.96
12973;BME280;6551;51.056;9.466;2024-03-23T06:57:23;96668.19;;;10.83;64.78
12973;BME280;6551;51.056;9.466;2024-03-23T06:59:50;96675.50;;;10.92;64.67
12973;BME280;6551;51.056;9.466;2024-03-23T07:02:16;96687.53;;;10.78;65.31
12973;BME280;6551;51.056;9.466;2024-03-23T07:04:42;96691.63;;;10.86;64.98
12973;BME280;6551;51.056;9.466;2024-03-23T07:07:07;96699.03;;;11.00;64.86
12973;BME280;6551;51.056;9.466;2024-03-23T07:09:33;96697.09;;;11.12;64.70
12973;BME280;6551;51.056;9.466;2024-03-23T07:11:59;96703.28;;;10.80;64.85
12973;BME280;6551;51.056;9.466;2024-03-23T07:14:25;96710.13;;;10.76;64.88
12973;BME280;6551;51.056;9.466;2024-03-23T07:16:51;96704.81;;;10.76;65.46
12973;BME280;6551;51.056;9.466;2024-03-23T07:19:18;96703.41;;;11.06;65.02
12973;BME280;6551;51.056;9.466;2024-03-23T07:21:46;96701.50;;;11.24;64.56
12973;BME280;6551;51.056;9.466;2024-03-23T07:24:13;96699.72;;;11.29;64.12
12973;BME280;6551;51.056;9.466;2024-03-23T07:26:39;96693.75;;;11.22;63.26
12973;BME280;6551;51.056;9.466;2024-03-23T07:29:06;96706.25;;;11.38;63.49
12973;BME280;6551;51.056;9.466;2024-03-23T07:31:32;96711.97;;;11.30;63.46
12973;BME280;6551;51.056;9.466;2024-03-23T07:33:58;96721.66;;;11.36;63.26
12973;BME280;6551;51.056;9.466;2024-03-23T07:36:24;96716.47;;;11.46;63.36
12973;BME280;6551;51.056;9.466;2024-03-23T07:38:51;96712.88;;;11.57;62.76
12973;BME280;6551;51.056;9.466;2024-03-23T07:41:19;96717.63;;;11.55;62.75
12973;BME280;6551;51.056;9.466;2024-03-23T07:43:47;96719.09;;;11.63;63.00
12973;BME280;6551;51.056;9.466;2024-03-23T07:46:16;96723.81;;;11.18;63.03
12973;BME280;6551;51.056;9.466;2024-03-23T07:48:42;96720.66;;;11.42;63.09
12973;BME280;6551;51.056;9.466;2024-03-23T07:51:09;96715.13;;;11.65;63.08
12973;BME280;6551;51.056;9.466;2024-03-23T07:53:37;96728.63;;;11.59;62.92
12973;BME280;6551;51.056;9.466;2024-03-23T07:56:08;96726.25;;;11.41;63.09
12973;BME280;6551;51.056;9.466;2024-03-23T07:58:36;96732.13;;;11.21;63.58
12973;BME280;6551;51.056;9.466;2024-03-23T08:01:17;96746.44;;;10.98;64.48
12973;BME280;6551;51.056;9.466;2024-03-23T08:03:46;96755.78;;;11.01;65.02
12973;BME280;6551;51.056;9.466;2024-03-23T08:06:19;96756.63;;;10.85;64.84
12973;BME280;6551;51.056;9.466;2024-03-23T08:08:51;96758.69;;;11.16;65.07
12973;BME280;6551;51.056;9.466;2024-03-23T08:11:32;96770.34;;;11.48;64.61
12973;BME280;6551;51.056;9.466;2024-03-23T08:14:01;96763.63;;;10.74;63.75
12973;BME280;6551;51.056;9.466;2024-03-23T08:16:27;96760.47;;;10.44;64.41
12973;BME280;6551;51.056;9.466;2024-03-23T08:18:53;96752.22;;;10.45;64.77
12973;BME280;6551;51.056;9.466;2024-03-23T08:21:21;96751.84;;;10.70;65.12
12973;BME280;6551;51.056;9.466;2024-03-23T08:23:47;96762.09;;;10.62;65.08
12973;BME280;6551;51.056;9.466;2024-03-23T08:26:16;96757.31;;;10.64;65.69
12973;BME280;6551;51.056;9.466;2024-03-23T08:28:46;96761.69;;;11.03;64.97
12973;BME280;6551;51.056;9.466;2024-03-23T08:31:13;96754.63;;;11.13;63.63
12973;BME280;6551;51.056;9.466;2024-03-23T08:33:40;96763.34;;;11.64;63.37
12973;BME280;6551;51.056;9.466;2024-03-23T08:36:10;96761.56;;;12.40;62.69
12973;BME280;6551;51.056;9.466;2024-03-23T08:38:39;96765.97;;;12.24;61.74
12973;BME280;6551;51.056;9.466;2024-03-23T08:41:09;96760.84;;;12.22;61.26
12973;BME280;6551;51.056;9.466;2024-03-23T08:43:41;96768.47;;;12.94;60.81
12973;BME280;6551;51.056;9.466;2024-03-23T08:46:15;96774.56;;;12.31;61.00
12973;BME280;6551;51.056;9.466;2024-03-23T08:48:46;96776.00;;;12.17;60.83
12973;BME280;6551;51.056;9.466;2024-03-23T08:51:16;96771.81;;;11.99;61.49
12973;BME280;6551;51.056;9.466;2024-03-23T08:53:45;96781.13;;;12.18;62.15
12973;BME280;6551;51.056;9.466;2024-03-23T08:56:11;96789.00;;;12.08;62.58
12973;BME280;6551;51.056;9.466;2024-03-23T08:58:40;96792.28;;;11.72;62.59
12973;BME280;6551;51.056;9.466;2024-03-23T09:01:11;96795.59;;;11.62;64.19
12973;BME280;6551;51.056;9.466;2024-03-23T09:03:39;96798.34;;;11.12;64.34
12973;BME280;6551;51.056;9.466;2024-03-23T09:08:35;96795.97;;;10.66;64.66
12973;BME280;6551;51.056;9.466;2024-03-23T09:11:07;96804.97;;;10.93;65.29
12973;BME280;6551;51.056;9.466;2024-03-23T09:13:35;96800.25;;;10.84;65.75
12973;BME280;6551;51.056;9.466;2024-03-23T09:16:04;96798.56;;;10.78;65.79
12973;BME280;6551;51.056;9.466;2024-03-23T09:18:36;96806.72;;;10.88;66.53
12973;BME280;6551;51.056;9.466;2024-03-23T09:21:04;96804.59;;;10.73;66.71
12973;BME280;6551;51.056;9.466;2024-03-23T09:23:29;96814.38;;;10.68;66.77
12973;BME280;6551;51.056;9.466;2024-03-23T09:25:56;96811.94;;;10.49;67.44
12973;BME280;6551;51.056;9.466;2024-03-23T09:28:23;96813.00;;;10.37;67.53
12973;BME280;6551;51.056;9.466;2024-03-23T09:30:50;96828.59;;;10.45;67.64
12973;BME280;6551;51.056;9.466;2024-03-23T09:33:17;96837.03;;;10.14;68.40
12973;BME280;6551;51.056;9.466;2024-03-23T09:35:46;96816.81;;;10.01;68.55
12973;BME280;6551;51.056;9.466;2024-03-23T09:38:13;96835.97;;;9.63;68.64
12973;BME280;6551;51.056;9.466;2024-03-23T09:40:42;96834.13;;;10.27;68.36
12973;BME280;6551;51.056;9.466;2024-03-23T09:43:09;96835.75;;;10.16;67.85
12973;BME280;6551;51.056;9.466;2024-03-23T09:45:42;96834.03;;;10.67;68.72
12973;BME280;6551;51.056;9.466;2024-03-23T09:48:12;96846.47;;;10.78;68.06
12973;BME280;6551;51.056;9.466;2024-03-23T09:50:43;96844.47;;;10.68;68.02
12973;BME280;6551;51.056;9.466;2024-03-23T09:53:12;96841.66;;;10.91;67.37
12973;BME280;6551;51.056;9.466;2024-03-23T09:55:43;96840.06;;;11.24;66.74
12973;BME280;6551;51.056;9.466;2024-03-23T09:58:13;96840.91;;;11.62;66.24
12973;BME280;6551;51.056;9.466;2024-03-23T10:00:40;96833.72;;;11.63;64.77
12973;BME280;6551;51.056;9.466;2024-03-23T10:03:07;96842.78;;;12.00;64.64
12973;BME280;6551;51.056;9.466;2024-03-23T10:05:34;96839.13;;;12.28;63.36
12973;BME280;6551;51.056;9.466;2024-03-23T10:08:20;96833.56;;;12.56;61.77
12973;BME280;6551;51.056;9.466;2024-03-23T10:10:48;96831.31;;;12.70;61.07
12973;BME280;6551;51.056;9.466;2024-03-23T10:13:27;96831.75;;;12.88;60.55
12973;BME280;6551;51.056;9.466;2024-03-23T10:15:59;96803.28;;;12.99;61.74
12973;BME280;6551;51.056;9.466;2024-03-23T10:18:26;96822.56;;;12.53;60.64
12973;BME280;6551;51.056;9.466;2024-03-23T10:21:10;96833.72;;;12.98;60.69
12973;BME280;6551;51.056;9.466;2024-03-23T10:23:41;96826.63;;;13.45;59.43
12973;BME280;6551;51.056;9.466;2024-03-23T10:26:24;96828.63;;;13.65;58.88
12973;BME280;6551;51.056;9.466;2024-03-23T10:29:00;96831.31;;;13.65;58.13
12973;BME280;6551;51.056;9.466;2024-03-23T10:31:31;96823.53;;;13.64;57.65
12973;BME280;6551;51.056;9.466;2024-03-23T10:33:57;96821.19;;;13.04;58.29
12973;BME280;6551;51.056;9.466;2024-03-23T10:36:24;96828.09;;;13.00;58.62
12973;BME280;6551;51.056;9.466;2024-03-23T10:38:54;96821.56;;;12.59;60.18
12973;BME280;6551;51.056;9.466;2024-03-23T10:41:21;96817.09;;;12.64;59.63
12973;BME280;6551;51.056;9.466;2024-03-23T10:43:51;96809.88;;;12.65;58.08
12973;BME280;6551;51.056;9.466;2024-03-23T10:46:18;96781.66;;;13.37;56.82
12973;BME280;6551;51.056;9.466;2024-03-23T10:48:45;96800.91;;;13.81;54.18
12973;BME280;6551;51.056;9.466;2024-03-23T10:51:11;96780.84;;;13.89;53.75
12973;BME280;6551;51.056;9.466;2024-03-23T10:53:38;96791.41;;;14.16;53.05
12973;BME280;6551;51.056;9.466;2024-03-23T10:56:05;96795.03;;;14.61;53.54
12973;BME280;6551;51.056;9.466;2024-03-23T10:58:41;96795.31;;;14.80;52.37
12973;BME280;6551;51.056;9.466;2024-03-23T11:01:11;96796.13;;;14.76;53.11
12973;BME280;6551;51.056;9.466;2024-03-23T11:03:38;96800.34;;;14.41;52.60
12973;BME280;6551;51.056;9.466;2024-03-23T11:06:06;96796.63;;;14.52;53.07
12973;BME280;6551;51.056;9.466;2024-03-23T11:08:39;96795.88;;;14.97;53.58
12973;BME280;6551;51.056;9.466;2024-03-23T11:11:21;96783.13;;;14.22;53.05
12973;BME280;6551;51.056;9.466;2024-03-23T11:13:52;96783.22;;;14.52;53.83
12973;BME280;6551;51.056;9.466;2024-03-23T11:18:51;96773.91;;;13.88;53.27
12973;BME280;6551;51.056;9.466;2024-03-23T11:21:54;96779.63;;;13.55;54.05
12973;BME280;6551;51.056;9.466;2024-03-23T11:24:23;96780.75;;;14.31;54.94
12973;BME280;6551;51.056;9.466;2024-03-23T11:26:50;96771.50;;;14.79;53.52
12973;BME280;6551;51.056;9.466;2024-03-23T11:29:17;96762.63;;;14.88;50.78
12973;BME280;6551;51.056;9.466;2024-03-23T11:31:52;96773.63;;;15.17;50.21
12973;BME280;6551;51.056;9.466;2024-03-23T11:34:20;96773.09;;;15.35;47.69
12973;BME280;6551;51.056;9.466;2024-03-23T11:36:47;96776.56;;;15.31;46.93
12973;BME280;6551;51.056;9.466;2024-03-23T11:39:18;96771.22;;;15.10;47.12
12973;BME280;6551;51.056;9.466;2024-03-23T11:41:57;96788.06;;;14.45;48.10
12973;BME280;6551;51.056;9.466;2024-03-23T11:44:26;96777.75;;;14.17;49.36
12973;BME280;6551;51.056;9.466;2024-03-23T11:46:53;96786.00;;;14.00;50.88
12973;BME280;6551;51.056;9.466;2024-03-23T11:49:29;96778.34;;;14.24;51.04
12973;BME280;6551;51.056;9.466;2024-03-23T11:51:56;96775.66;;;13.67;51.52
12973;BME280;6551;51.056;9.466;2024-03-23T11:54:23;96776.63;;;13.46;53.32
12973;BME280;6551;51.056;9.466;2024-03-23T11:57:05;96797.88;;;13.26;54.38
12973;BME280;6551;51.056;9.466;2024-03-23T11:59:40;96800.41;;;12.79;55.25
12973;BME280;6551;51.056;9.466;2024-03-23T12:02:10;96837.69;;;12.69;56.63
12973;BME280;6551;51.056;9.466;2024-03-23T12:04:38;96872.50;;;11.87;60.25
12973;BME280;6551;51.056;9.466;2024-03-23T12:07:18;63333.28;;;-143.63;100.00
12973;BME280;6551;51.056;9.466;2024-03-23T12:10:02;63333.28;;;-143.63;100.00
12973;BME280;6551;51.056;9.466;2024-03-23T12:12:28;63333.28;;;-143.63;100.00
12973;BME280;6551;51.056;9.466;2024-03-23T12:15:08;63333.28;;;-143.63;100.00
12973;BME280;6551;51.056;9.466;2024-03-23T12:17:34;63333.28;;;-143.63;100.00
12973;BME280;6551;51.056;9.466;2024-03-23T12:20:01;63333.28;;;-143.63;100.00
12973;BME280;6551;51.056;9.466;2024-03-23T12:22:28;63333.28;;;-143.63;100.00
12973;BME280;6551;51.056;9.466;2024-03-23T12:24:55;96872.50;;;11.87;60.25
12973;BME280;6551;51.056;9.466;2024-03-23T12:27:23;96816.84;;;11.57;65.29
12973;BME280;6551;51.056;9.466;2024-03-23T12:29:50;96814.25;;;11.79;63.14
12973;BME280;6551;51.056;9.466;2024-03-23T12:32:15;96802.84;;;11.67;62.01
12973;BME280;6551;51.056;9.466;2024-03-23T12:34:42;96800.41;;;12.25;62.03
12973;BME280;6551;51.056;9.466;2024-03-23T12:37:08;96803.19;;;12.14;61.58
12973;BME280;6551;51.056;9.466;2024-03-23T12:39:34;96805.34;;;12.39;62.26
12973;BME280;6551;51.056;9.466;2024-03-23T12:42:01;96796.63;;;12.48;61.85
12973;BME280;6551;51.056;9.466;2024-03-23T12:44:32;96796.47;;;12.86;60.67
12973;BME280;6551;51.056;9.466;2024-03-23T12:46:57;96791.50;;;13.00;60.34
12973;BME280;6551;51.056;9.466;2024-03-23T12:49:23;96791.25;;;12.70;59.63
12973;BME280;6551;51.056;9.466;2024-03-23T12:51:57;96792.97;;;12.86;59.00
12973;BME280;6551;51.056;9.466;2024-03-23T12:54:25;96785.53;;;12.61;59.95
12973;BME280;6551;51.056;9.466;2024-03-23T12:56:52;96792.81;;;12.39;60.24
12973;BME280;6551;51.056;9.466;2024-03-23T12:59:19;96796.34;;;12.71;61.29
12973;BME280;6551;51.056;9.466;2024-03-23T13:01:46;96784.72;;;12.61;59.66
12973;BME280;6551;51.056;9.466;2024-03-23T13:04:11;96788.75;;;12.63;59.85
12973;BME280;6551;51.056;9.466;2024-03-23T13:06:37;96779.41;;;12.93;59.69
12973;BME280;6551;51.056;9.466;2024-03-23T13:09:04;96770.31;;;13.20;59.54
12973;BME280;6551;51.056;9.466;2024-03-23T13:11:32;96785.53;;;12.61;59.66
12973;BME280;6551;51.056;9.466;2024-03-23T13:13:59;96773.66;;;12.74;59.71
12973;BME280;6551;51.056;9.466;2024-03-23T13:16:26;96765.16;;;12.23;60.84
12973;BME280;6551;51.056;9.466;2024-03-23T13:18:53;96760.63;;;12.02;60.53
12973;BME280;6551;51.056;9.466;2024-03-23T13:21:20;96767.91;;;12.33;59.41
12973;BME280;6551;51.056;9.466;2024-03-23T13:23:48;96765.56;;;12.37;58.80
12973;BME280;6551;51.056;9.466;2024-03-23T13:26:16;96751.81;;;12.23;59.26
12973;BME280;6551;51.056;9.466;2024-03-23T13:28:42;96754.03;;;12.31;59.42
12973;BME280;6551;51.056;9.466;2024-03-23T13:31:08;96766.81;;;12.08;60.34
12973;BME280;6551;51.056;9.466;2024-03-23T13:33:35;96817.47;;;11.81;62.25
12973;BME280;6551;51.056;9.466;2024-03-23T13:36:02;96833.16;;;10.78;63.50
12973;BME280;6551;51.056;9.466;2024-03-23T13:38:29;96822.50;;;9.81;65.26
12973;BME280;6551;51.056;9.466;2024-03-23T13:40:59;96824.72;;;9.61;66.16
12973;BME280;6551;51.056;9.466;2024-03-23T13:43:27;96831.69;;;9.27;66.95
12973;BME280;6551;51.056;9.466;2024-03-23T13:45:59;96840.13;;;9.59;67.46
12973;BME280;6551;51.056;9.466;2024-03-23T13:48:27;96830.84;;;9.85;67.57
12973;BME280;6551;51.056;9.466;2024-03-23T13:51:03;96829.97;;;10.47;67.84
12973;BME280;6551;51.056;9.466;2024-03-23T13:53:30;96825.94;;;11.06;67.16
12973;BME280;6551;51.056;9.466;2024-03-23T13:55:57;96827.13;;;11.49;65.90
12973;BME280;6551;51.056;9.466;2024-03-23T13:58:23;96824.50;;;12.09;65.60
12973;BME280;6551;51.056;9.466;2024-03-23T14:00:51;96822.63;;;12.09;63.59
12973;BME280;6551;51.056;9.466;2024-03-23T14:03:18;96837.16;;;12.94;63.75
12973;BME280;6551;51.056;9.466;2024-03-23T14:05:46;96834.91;;;12.32;61.26
12973;BME280;6551;51.056;9.466;2024-03-23T14:08:16;96828.59;;;12.38;62.00
12973;BME280;6551;51.056;9.466;2024-03-23T14:10:42;96818.03;;;12.26;60.92
12973;BME280;6551;51.056;9.466;2024-03-23T14:13:08;96826.50;;;12.45;60.47